sensor_id;sensor_type;location;lat;lon;timestamp;temperature;humidity
21712;DHT22;11017;53.552;9.910;2023-01-19T00:01:04;3.30;99.90
21712;DHT22;11017;53.552;9.910;2023-01-19T00:03:31;3.30;99.90
21712;DHT22;11017;53.552;9.910;2023-01-19T00:06:03;3.30;99.90
21712;DHT22;11017;53.552;9.910;2023-01-19T00:08:30;3.50;99.90
21712;DHT22;11017;53.552;9.910;2023-01-19T00:11:04;3.40;99.90
21712;DHT22;11017;53.552;9.910;2023-01-19T00:13:37;3.60;99.90
21712;DHT22;11017;53.552;9.910;2023-01-19T00:16:05;3.50;99.90
21712;DHT22;11017;53.552;9.910;2023-01-19T00:18:32;3.50;99.90
21712;DHT22;11017;53.552;9.910;2023-01-19T00:20:59;3.40;99.90
21712;DHT22;11017;53.552;9.910;2023-01-19T00:23:26;3.50;99.90
21712;DHT22;11017;53.552;9.910;2023-01-19T00:25:53;3.50;99.90
21712;DHT22;11017;53.552;9.910;2023-01-19T00:28:20;3.40;99.90
21712;DHT22;11017;53.552;9.910;2023-01-19T00:30:49;3.50;99.90
21712;DHT22;11017;53.552;9.910;2023-01-19T00:33:16;3.60;99.90
21712;DHT22;11017;53.552;9.910;2023-01-19T00:35:50;3.70;99.90
21712;DHT22;11017;53.552;9.910;2023-01-19T00:38:17;3.70;99.90
21712;DHT22;11017;53.552;9.910;2023-01-19T00:40:44;3.60;99.90
21712;DHT22;11017;53.552;9.910;2023-01-19T00:43:20;3.70;99.90
21712;DHT22;11017;53.552;9.910;2023-01-19T00:45:48;3.70;99.90
21712;DHT22;11017;53.552;9.910;2023-01-19T00:48:15;3.70;99.90
21712;DHT22;11017;53.552;9.910;2023-01-19T00:50:42;3.70;99.90
21712;DHT22;11017;53.552;9.910;2023-01-19T00:53:09;3.50;99.90
21712;DHT22;11017;53.552;9.910;2023-01-19T00:55:36;3.70;99.90
21712;DHT22;11017;53.552;9.910;2023-01-19T00:58:03;3.60;99.90
21712;DHT22;11017;53.552;9.910;2023-01-19T01:00:31;3.50;99.90
21712;DHT22;11017;53.552;9.910;2023-01-19T01:02:59;3.50;99.90
21712;DHT22;11017;53.552;9.910;2023-01-19T01:05:26;3.60;99.90
21712;DHT22;11017;53.552;9.910;2023-01-19T01:07:53;3.60;99.90
21712;DHT22;11017;53.552;9.910;2023-01-19T01:10:22;3.70;99.90
21712;DHT22;11017;53.552;9.910;2023-01-19T01:12:49;3.50;99.90
21712;DHT22;11017;53.552;9.910;2023-01-19T01:15:17;3.70;99.90
21712;DHT22;11017;53.552;9.910;2023-01-19T01:17:47;3.80;99.90
21712;DHT22;11017;53.552;9.910;2023-01-19T01:20:17;3.90;99.90
21712;DHT22;11017;53.552;9.910;2023-01-19T01:22:46;3.60;99.90
21712;DHT22;11017;53.552;9.910;2023-01-19T01:25:15;3.70;99.90
21712;DHT22;11017;53.552;9.910;2023-01-19T01:27:42;3.70;99.90
21712;DHT22;11017;53.552;9.910;2023-01-19T01:30:12;3.80;99.90
21712;DHT22;11017;53.552;9.910;2023-01-19T01:32:39;3.60;99.90
21712;DHT22;11017;53.552;9.910;2023-01-19T01:35:08;3.60;99.90
21712;DHT22;11017;53.552;9.910;2023-01-19T01:37:37;3.70;99.90
21712;DHT22;11017;53.552;9.910;2023-01-19T01:40:05;3.70;99.90
21712;DHT22;11017;53.552;9.910;2023-01-19T01:42:33;3.70;99.90
21712;DHT22;11017;53.552;9.910;2023-01-19T01:45:02;3.70;99.90
21712;DHT22;11017;53.552;9.910;2023-01-19T01:47:33;3.70;99.90
21712;DHT22;11017;53.552;9.910;2023-01-19T01:50:07;3.70;99.90
21712;DHT22;11017;53.552;9.910;2023-01-19T01:52:39;3.60;99.90
21712;DHT22;11017;53.552;9.910;2023-01-19T01:55:08;3.70;99.90
21712;DHT22;11017;53.552;9.910;2023-01-19T01:57:40;3.80;99.90
21712;DHT22;11017;53.552;9.910;2023-01-19T02:00:08;3.90;99.90
21712;DHT22;11017;53.552;9.910;2023-01-19T02:02:36;3.90;99.90
21712;DHT22;11017;53.552;9.910;2023-01-19T02:05:22;3.90;99.90
21712;DHT22;11017;53.552;9.910;2023-01-19T02:07:55;3.90;99.90
21712;DHT22;11017;53.552;9.910;2023-01-19T02:10:42;3.80;99.90
21712;DHT22;11017;53.552;9.910;2023-01-19T02:13:29;3.70;99.90
21712;DHT22;11017;53.552;9.910;2023-01-19T02:15:58;3.80;99.90
21712;DHT22;11017;53.552;9.910;2023-01-19T02:18:26;3.70;99.90
21712;DHT22;11017;53.552;9.910;2023-01-19T02:21:08;3.70;99.90
21712;DHT22;11017;53.552;9.910;2023-01-19T02:23:41;3.80;99.90
21712;DHT22;11017;53.552;9.910;2023-01-19T02:26:09;3.80;99.90
21712;DHT22;11017;53.552;9.910;2023-01-19T02:28:38;3.60;99.90
21712;DHT22;11017;53.552;9.910;2023-01-19T02:31:06;3.60;99.90
21712;DHT22;11017;53.552;9.910;2023-01-19T02:33:33;3.60;99.90
21712;DHT22;11017;53.552;9.910;2023-01-19T02:36:00;3.70;99.90
21712;DHT22;11017;53.552;9.910;2023-01-19T02:38:27;3.70;99.90
21712;DHT22;11017;53.552;9.910;2023-01-19T02:40:59;3.70;99.90
21712;DHT22;11017;53.552;9.910;2023-01-19T02:43:28;3.80;99.90
21712;DHT22;11017;53.552;9.910;2023-01-19T02:45:55;3.80;99.90
21712;DHT22;11017;53.552;9.910;2023-01-19T02:48:22;3.80;99.90
21712;DHT22;11017;53.552;9.910;2023-01-19T02:50:50;3.80;99.90
21712;DHT22;11017;53.552;9.910;2023-01-19T02:53:41;3.80;99.90
21712;DHT22;11017;53.552;9.910;2023-01-19T02:56:37;3.70;99.90
21712;DHT22;11017;53.552;9.910;2023-01-19T02:59:12;3.80;99.90
21712;DHT22;11017;53.552;9.910;2023-01-19T03:01:51;3.70;99.90
21712;DHT22;11017;53.552;9.910;2023-01-19T03:04:26;3.70;99.90
21712;DHT22;11017;53.552;9.910;2023-01-19T03:06:59;3.70;99.90
21712;DHT22;11017;53.552;9.910;2023-01-19T03:09:33;3.80;99.90
21712;DHT22;11017;53.552;9.910;2023-01-19T03:12:23;3.80;99.90
21712;DHT22;11017;53.552;9.910;2023-01-19T03:14:52;3.90;99.90
21712;DHT22;11017;53.552;9.910;2023-01-19T03:17:23;3.90;99.90
21712;DHT22;11017;53.552;9.910;2023-01-19T03:19:52;3.80;99.90
21712;DHT22;11017;53.552;9.910;2023-01-19T03:22:21;3.60;99.90
21712;DHT22;11017;53.552;9.910;2023-01-19T03:24:50;3.60;99.90
21712;DHT22;11017;53.552;9.910;2023-01-19T03:27:23;3.70;99.90
21712;DHT22;11017;53.552;9.910;2023-01-19T03:29:52;3.80;99.90
21712;DHT22;11017;53.552;9.910;2023-01-19T03:32:24;3.70;99.90
21712;DHT22;11017;53.552;9.910;2023-01-19T03:34:55;3.80;99.90
21712;DHT22;11017;53.552;9.910;2023-01-19T03:37:26;3.80;99.90
21712;DHT22;11017;53.552;9.910;2023-01-19T03:39:55;3.70;99.90
21712;DHT22;11017;53.552;9.910;2023-01-19T03:42:24;3.80;99.90
21712;DHT22;11017;53.552;9.910;2023-01-19T03:44:54;3.90;99.90
21712;DHT22;11017;53.552;9.910;2023-01-19T03:47:22;3.90;99.90
21712;DHT22;11017;53.552;9.910;2023-01-19T03:49:51;3.60;99.90
21712;DHT22;11017;53.552;9.910;2023-01-19T03:52:27;3.70;99.90
21712;DHT22;11017;53.552;9.910;2023-01-19T03:54:54;3.80;99.90
21712;DHT22;11017;53.552;9.910;2023-01-19T03:57:22;3.70;99.90
21712;DHT22;11017;53.552;9.910;2023-01-19T03:59:49;3.80;99.90
21712;DHT22;11017;53.552;9.910;2023-01-19T04:02:18;3.80;99.90
21712;DHT22;11017;53.552;9.910;2023-01-19T04:04:45;3.80;99.90
21712;DHT22;11017;53.552;9.910;2023-01-19T04:07:11;3.80;99.90
21712;DHT22;11017;53.552;9.910;2023-01-19T04:09:38;3.90;99.90
21712;DHT22;11017;53.552;9.910;2023-01-19T04:12:06;3.80;99.90
21712;DHT22;11017;53.552;9.910;2023-01-19T04:14:34;3.70;99.90
21712;DHT22;11017;53.552;9.910;2023-01-19T04:17:01;3.70;99.90
21712;DHT22;11017;53.552;9.910;2023-01-19T04:19:28;3.70;99.90
21712;DHT22;11017;53.552;9.910;2023-01-19T04:21:55;3.80;99.90
21712;DHT22;11017;53.552;9.910;2023-01-19T04:24:21;3.90;99.90
21712;DHT22;11017;53.552;9.910;2023-01-19T04:26:50;3.70;99.90
21712;DHT22;11017;53.552;9.910;2023-01-19T04:29:17;3.70;99.90
21712;DHT22;11017;53.552;9.910;2023-01-19T04:31:45;3.70;99.90
21712;DHT22;11017;53.552;9.910;2023-01-19T04:34:12;3.70;99.90
21712;DHT22;11017;53.552;9.910;2023-01-19T04:36:39;3.80;99.90
21712;DHT22;11017;53.552;9.910;2023-01-19T04:39:06;3.70;99.90
21712;DHT22;11017;53.552;9.910;2023-01-19T04:41:34;3.80;99.90
21712;DHT22;11017;53.552;9.910;2023-01-19T04:44:02;3.80;99.90
21712;DHT22;11017;53.552;9.910;2023-01-19T04:46:29;3.70;99.90
21712;DHT22;11017;53.552;9.910;2023-01-19T04:48:57;3.70;99.90
21712;DHT22;11017;53.552;9.910;2023-01-19T04:51:24;3.80;99.90
21712;DHT22;11017;53.552;9.910;2023-01-19T04:53:53;3.80;99.90
21712;DHT22;11017;53.552;9.910;2023-01-19T04:56:20;3.70;99.90
21712;DHT22;11017;53.552;9.910;2023-01-19T04:58:46;3.70;99.90
21712;DHT22;11017;53.552;9.910;2023-01-19T05:01:13;3.70;99.90
21712;DHT22;11017;53.552;9.910;2023-01-19T05:03:40;3.90;99.90
21712;DHT22;11017;53.552;9.910;2023-01-19T05:06:08;3.90;99.90
21712;DHT22;11017;53.552;9.910;2023-01-19T05:08:35;3.90;99.90
21712;DHT22;11017;53.552;9.910;2023-01-19T05:11:02;3.80;99.90
21712;DHT22;11017;53.552;9.910;2023-01-19T05:13:29;3.90;99.90
21712;DHT22;11017;53.552;9.910;2023-01-19T05:15:56;3.90;99.90
21712;DHT22;11017;53.552;9.910;2023-01-19T05:18:23;3.90;99.90
21712;DHT22;11017;53.552;9.910;2023-01-19T05:20:50;3.90;99.90
21712;DHT22;11017;53.552;9.910;2023-01-19T05:23:18;3.90;99.90
21712;DHT22;11017;53.552;9.910;2023-01-19T05:25:46;3.70;99.90
21712;DHT22;11017;53.552;9.910;2023-01-19T05:28:12;3.80;99.90
21712;DHT22;11017;53.552;9.910;2023-01-19T05:30:39;3.80;99.90
21712;DHT22;11017;53.552;9.910;2023-01-19T05:33:06;3.80;99.90
21712;DHT22;11017;53.552;9.910;2023-01-19T05:35:33;3.70;99.90
21712;DHT22;11017;53.552;9.910;2023-01-19T05:38:00;3.80;99.90
21712;DHT22;11017;53.552;9.910;2023-01-19T05:40:28;3.80;99.90
21712;DHT22;11017;53.552;9.910;2023-01-19T05:42:55;3.80;99.90
21712;DHT22;11017;53.552;9.910;2023-01-19T05:45:25;3.80;99.90
21712;DHT22;11017;53.552;9.910;2023-01-19T05:47:52;3.90;99.90
21712;DHT22;11017;53.552;9.910;2023-01-19T05:50:19;3.80;99.90
21712;DHT22;11017;53.552;9.910;2023-01-19T05:52:46;3.80;99.90
21712;DHT22;11017;53.552;9.910;2023-01-19T05:55:13;3.80;99.90
21712;DHT22;11017;53.552;9.910;2023-01-19T05:57:42;3.70;99.90
21712;DHT22;11017;53.552;9.910;2023-01-19T06:00:10;3.80;99.90
21712;DHT22;11017;53.552;9.910;2023-01-19T06:02:37;3.80;99.90
21712;DHT22;11017;53.552;9.910;2023-01-19T06:05:04;3.70;99.90
21712;DHT22;11017;53.552;9.910;2023-01-19T06:07:31;3.80;99.90
21712;DHT22;11017;53.552;9.910;2023-01-19T06:09:58;3.70;99.90
21712;DHT22;11017;53.552;9.910;2023-01-19T06:12:25;3.70;99.90
21712;DHT22;11017;53.552;9.910;2023-01-19T06:14:54;3.80;99.90
21712;DHT22;11017;53.552;9.910;2023-01-19T06:17:21;3.80;99.90
21712;DHT22;11017;53.552;9.910;2023-01-19T06:19:47;3.70;99.90
21712;DHT22;11017;53.552;9.910;2023-01-19T06:22:14;3.80;99.90
21712;DHT22;11017;53.552;9.910;2023-01-19T06:24:41;3.70;99.90
21712;DHT22;11017;53.552;9.910;2023-01-19T06:27:08;3.70;99.90
21712;DHT22;11017;53.552;9.910;2023-01-19T06:29:35;3.70;99.90
21712;DHT22;11017;53.552;9.910;2023-01-19T06:32:05;3.80;99.90
21712;DHT22;11017;53.552;9.910;2023-01-19T06:34:32;3.80;99.90
21712;DHT22;11017;53.552;9.910;2023-01-19T06:36:58;3.70;99.90
21712;DHT22;11017;53.552;9.910;2023-01-19T06:39:25;3.70;99.90
21712;DHT22;11017;53.552;9.910;2023-01-19T06:41:52;3.70;99.90
21712;DHT22;11017;53.552;9.910;2023-01-19T06:44:19;3.60;99.90
21712;DHT22;11017;53.552;9.910;2023-01-19T06:46:46;3.70;99.90
21712;DHT22;11017;53.552;9.910;2023-01-19T06:49:14;3.70;99.90
21712;DHT22;11017;53.552;9.910;2023-01-19T06:51:41;3.70;99.90
21712;DHT22;11017;53.552;9.910;2023-01-19T06:54:08;3.60;99.90
21712;DHT22;11017;53.552;9.910;2023-01-19T06:56:35;3.60;99.90
21712;DHT22;11017;53.552;9.910;2023-01-19T06:59:02;3.60;99.90
21712;DHT22;11017;53.552;9.910;2023-01-19T07:01:29;3.40;99.90
21712;DHT22;11017;53.552;9.910;2023-01-19T07:03:57;3.60;99.90
21712;DHT22;11017;53.552;9.910;2023-01-19T07:06:25;3.70;99.90
21712;DHT22;11017;53.552;9.910;2023-01-19T07:08:53;3.60;99.90
21712;DHT22;11017;53.552;9.910;2023-01-19T07:11:20;3.60;99.90
21712;DHT22;11017;53.552;9.910;2023-01-19T07:13:47;3.70;99.90
21712;DHT22;11017;53.552;9.910;2023-01-19T07:16:16;3.80;99.90
21712;DHT22;11017;53.552;9.910;2023-01-19T07:18:43;3.70;99.90
21712;DHT22;11017;53.552;9.910;2023-01-19T07:21:10;3.60;99.90
21712;DHT22;11017;53.552;9.910;2023-01-19T07:23:39;3.70;99.90
21712;DHT22;11017;53.552;9.910;2023-01-19T07:26:06;3.60;99.90
21712;DHT22;11017;53.552;9.910;2023-01-19T07:28:32;3.60;99.90
21712;DHT22;11017;53.552;9.910;2023-01-19T07:31:01;3.60;99.90
21712;DHT22;11017;53.552;9.910;2023-01-19T07:33:28;3.50;99.90
21712;DHT22;11017;53.552;9.910;2023-01-19T07:35:55;3.50;99.90
21712;DHT22;11017;53.552;9.910;2023-01-19T07:38:24;3.60;99.90
21712;DHT22;11017;53.552;9.910;2023-01-19T07:40:59;3.60;99.90
21712;DHT22;11017;53.552;9.910;2023-01-19T07:43:25;3.60;99.90
21712;DHT22;11017;53.552;9.910;2023-01-19T07:45:54;3.60;99.90
21712;DHT22;11017;53.552;9.910;2023-01-19T07:48:21;3.60;99.90
21712;DHT22;11017;53.552;9.910;2023-01-19T07:50:48;3.60;99.90
21712;DHT22;11017;53.552;9.910;2023-01-19T07:53:15;3.60;99.90
21712;DHT22;11017;53.552;9.910;2023-01-19T07:55:42;3.50;99.90
21712;DHT22;11017;53.552;9.910;2023-01-19T07:58:11;3.50;99.90
21712;DHT22;11017;53.552;9.910;2023-01-19T08:00:37;3.40;99.90
21712;DHT22;11017;53.552;9.910;2023-01-19T08:03:04;3.50;99.90
21712;DHT22;11017;53.552;9.910;2023-01-19T08:05:33;3.60;99.90
21712;DHT22;11017;53.552;9.910;2023-01-19T08:08:00;3.70;99.90
21712;DHT22;11017;53.552;9.910;2023-01-19T08:10:28;3.70;99.90
21712;DHT22;11017;53.552;9.910;2023-01-19T08:12:56;3.70;99.90
21712;DHT22;11017;53.552;9.910;2023-01-19T08:15:25;3.70;99.90
21712;DHT22;11017;53.552;9.910;2023-01-19T08:17:56;3.80;99.90
21712;DHT22;11017;53.552;9.910;2023-01-19T08:20:23;3.80;99.90
21712;DHT22;11017;53.552;9.910;2023-01-19T08:22:50;3.90;99.90
21712;DHT22;11017;53.552;9.910;2023-01-19T08:25:24;4.00;99.90
21712;DHT22;11017;53.552;9.910;2023-01-19T08:27:53;3.90;99.90
21712;DHT22;11017;53.552;9.910;2023-01-19T08:30:21;4.00;99.90
21712;DHT22;11017;53.552;9.910;2023-01-19T08:32:52;4.10;99.90
21712;DHT22;11017;53.552;9.910;2023-01-19T08:35:22;4.10;99.90
21712;DHT22;11017;53.552;9.910;2023-01-19T08:37:49;4.00;99.90
21712;DHT22;11017;53.552;9.910;2023-01-19T08:40:16;4.00;99.90
21712;DHT22;11017;53.552;9.910;2023-01-19T08:42:44;4.00;99.90
21712;DHT22;11017;53.552;9.910;2023-01-19T08:45:12;4.20;99.90
21712;DHT22;11017;53.552;9.910;2023-01-19T08:47:39;4.10;99.90
21712;DHT22;11017;53.552;9.910;2023-01-19T08:50:09;4.10;99.90
21712;DHT22;11017;53.552;9.910;2023-01-19T08:52:36;4.10;99.90
21712;DHT22;11017;53.552;9.910;2023-01-19T08:55:05;4.20;99.90
21712;DHT22;11017;53.552;9.910;2023-01-19T08:57:32;4.20;99.90
21712;DHT22;11017;53.552;9.910;2023-01-19T08:59:59;4.20;99.90
21712;DHT22;11017;53.552;9.910;2023-01-19T09:02:26;4.30;99.90
21712;DHT22;11017;53.552;9.910;2023-01-19T09:04:54;4.30;99.90
21712;DHT22;11017;53.552;9.910;2023-01-19T09:07:22;4.30;99.90
21712;DHT22;11017;53.552;9.910;2023-01-19T09:09:49;4.20;99.90
21712;DHT22;11017;53.552;9.910;2023-01-19T09:12:16;4.30;99.90
21712;DHT22;11017;53.552;9.910;2023-01-19T09:14:43;4.30;99.90
21712;DHT22;11017;53.552;9.910;2023-01-19T09:17:10;4.30;99.90
21712;DHT22;11017;53.552;9.910;2023-01-19T09:19:39;4.20;99.90
21712;DHT22;11017;53.552;9.910;2023-01-19T09:22:06;4.10;99.90
21712;DHT22;11017;53.552;9.910;2023-01-19T09:24:34;4.20;99.90
21712;DHT22;11017;53.552;9.910;2023-01-19T09:27:01;4.30;99.90
21712;DHT22;11017;53.552;9.910;2023-01-19T09:29:28;4.30;99.90
21712;DHT22;11017;53.552;9.910;2023-01-19T09:31:55;4.30;99.90
21712;DHT22;11017;53.552;9.910;2023-01-19T09:34:23;4.20;99.90
21712;DHT22;11017;53.552;9.910;2023-01-19T09:36:51;4.30;99.90
21712;DHT22;11017;53.552;9.910;2023-01-19T09:39:18;4.30;99.90
21712;DHT22;11017;53.552;9.910;2023-01-19T09:41:50;4.40;99.90
21712;DHT22;11017;53.552;9.910;2023-01-19T09:44:27;4.20;99.90
21712;DHT22;11017;53.552;9.910;2023-01-19T09:46:55;4.40;99.90
21712;DHT22;11017;53.552;9.910;2023-01-19T09:49:27;4.30;99.90
21712;DHT22;11017;53.552;9.910;2023-01-19T09:51:56;4.40;99.90
21712;DHT22;11017;53.552;9.910;2023-01-19T09:54:28;4.40;99.90
21712;DHT22;11017;53.552;9.910;2023-01-19T09:57:00;4.40;99.90
21712;DHT22;11017;53.552;9.910;2023-01-19T09:59:28;4.40;99.90
21712;DHT22;11017;53.552;9.910;2023-01-19T10:02:06;4.50;99.90
21712;DHT22;11017;53.552;9.910;2023-01-19T10:04:39;4.60;99.90
21712;DHT22;11017;53.552;9.910;2023-01-19T10:07:14;4.70;99.90
21712;DHT22;11017;53.552;9.910;2023-01-19T10:10:07;4.70;99.90
21712;DHT22;11017;53.552;9.910;2023-01-19T10:12:44;4.70;99.90
21712;DHT22;11017;53.552;9.910;2023-01-19T10:15:23;4.50;99.90
21712;DHT22;11017;53.552;9.910;2023-01-19T10:18:03;4.60;99.90
21712;DHT22;11017;53.552;9.910;2023-01-19T10:20:36;4.70;99.90
21712;DHT22;11017;53.552;9.910;2023-01-19T10:23:22;4.70;99.90
21712;DHT22;11017;53.552;9.910;2023-01-19T10:25:51;4.80;99.90
21712;DHT22;11017;53.552;9.910;2023-01-19T10:28:23;4.90;99.90
21712;DHT22;11017;53.552;9.910;2023-01-19T10:30:51;4.90;99.90
21712;DHT22;11017;53.552;9.910;2023-01-19T10:33:19;4.90;99.90
21712;DHT22;11017;53.552;9.910;2023-01-19T10:35:48;4.80;99.90
21712;DHT22;11017;53.552;9.910;2023-01-19T10:38:16;4.90;99.90
21712;DHT22;11017;53.552;9.910;2023-01-19T10:40:51;4.90;99.90
21712;DHT22;11017;53.552;9.910;2023-01-19T10:43:39;4.70;99.90
21712;DHT22;11017;53.552;9.910;2023-01-19T10:46:15;4.50;99.90
21712;DHT22;11017;53.552;9.910;2023-01-19T10:48:44;4.60;99.90
21712;DHT22;11017;53.552;9.910;2023-01-19T10:51:14;4.50;99.90
21712;DHT22;11017;53.552;9.910;2023-01-19T10:53:51;4.50;99.90
21712;DHT22;11017;53.552;9.910;2023-01-19T10:56:22;4.60;99.90
21712;DHT22;11017;53.552;9.910;2023-01-19T10:58:50;4.60;99.90
21712;DHT22;11017;53.552;9.910;2023-01-19T11:01:19;4.40;99.90
21712;DHT22;11017;53.552;9.910;2023-01-19T11:03:46;4.30;99.90
21712;DHT22;11017;53.552;9.910;2023-01-19T11:06:25;4.60;99.90
21712;DHT22;11017;53.552;9.910;2023-01-19T11:08:53;4.40;99.90
21712;DHT22;11017;53.552;9.910;2023-01-19T11:11:44;4.50;99.90
21712;DHT22;11017;53.552;9.910;2023-01-19T11:14:15;4.10;99.90
21712;DHT22;11017;53.552;9.910;2023-01-19T11:16:46;4.60;99.90
21712;DHT22;11017;53.552;9.910;2023-01-19T11:19:20;4.60;99.90
21712;DHT22;11017;53.552;9.910;2023-01-19T11:21:49;4.70;99.90
21712;DHT22;11017;53.552;9.910;2023-01-19T11:24:16;4.80;99.90
21712;DHT22;11017;53.552;9.910;2023-01-19T11:26:45;4.70;99.90
21712;DHT22;11017;53.552;9.910;2023-01-19T11:29:18;4.70;99.90
21712;DHT22;11017;53.552;9.910;2023-01-19T11:31:52;4.60;99.90
21712;DHT22;11017;53.552;9.910;2023-01-19T11:34:25;4.70;99.90
21712;DHT22;11017;53.552;9.910;2023-01-19T11:36:57;4.80;99.90
21712;DHT22;11017;53.552;9.910;2023-01-19T11:39:26;4.80;99.90
21712;DHT22;11017;53.552;9.910;2023-01-19T11:41:55;4.80;99.90
21712;DHT22;11017;53.552;9.910;2023-01-19T11:44:26;4.60;99.90
21712;DHT22;11017;53.552;9.910;2023-01-19T11:46:57;4.40;99.90
21712;DHT22;11017;53.552;9.910;2023-01-19T11:49:32;4.40;99.90
21712;DHT22;11017;53.552;9.910;2023-01-19T11:52:05;4.40;99.90
21712;DHT22;11017;53.552;9.910;2023-01-19T11:54:40;4.60;99.90
21712;DHT22;11017;53.552;9.910;2023-01-19T11:57:12;4.60;99.90
21712;DHT22;11017;53.552;9.910;2023-01-19T11:59:42;4.60;99.90
21712;DHT22;11017;53.552;9.910;2023-01-19T12:02:22;4.70;99.90
21712;DHT22;11017;53.552;9.910;2023-01-19T12:04:55;4.70;99.90
21712;DHT22;11017;53.552;9.910;2023-01-19T12:07:27;4.70;99.90
21712;DHT22;11017;53.552;9.910;2023-01-19T12:10:01;4.60;99.90
21712;DHT22;11017;53.552;9.910;2023-01-19T12:12:33;4.60;99.90
21712;DHT22;11017;53.552;9.910;2023-01-19T12:15:06;4.40;99.90
21712;DHT22;11017;53.552;9.910;2023-01-19T12:17:42;4.40;99.90
21712;DHT22;11017;53.552;9.910;2023-01-19T12:20:19;4.50;99.90
21712;DHT22;11017;53.552;9.910;2023-01-19T12:22:53;4.60;99.90
21712;DHT22;11017;53.552;9.910;2023-01-19T12:25:37;4.70;99.90
21712;DHT22;11017;53.552;9.910;2023-01-19T12:28:10;4.60;99.90
21712;DHT22;11017;53.552;9.910;2023-01-19T12:30:40;4.60;99.90
21712;DHT22;11017;53.552;9.910;2023-01-19T12:33:21;4.60;99.90
21712;DHT22;11017;53.552;9.910;2023-01-19T12:35:56;4.70;99.90
21712;DHT22;11017;53.552;9.910;2023-01-19T12:38:39;4.70;99.90
21712;DHT22;11017;53.552;9.910;2023-01-19T12:41:19;4.60;99.90
21712;DHT22;11017;53.552;9.910;2023-01-19T12:43:47;4.60;99.90
21712;DHT22;11017;53.552;9.910;2023-01-19T12:46:27;4.50;99.90
21712;DHT22;11017;53.552;9.910;2023-01-19T12:49:03;4.50;99.90
21712;DHT22;11017;53.552;9.910;2023-01-19T12:51:31;4.50;99.90
21712;DHT22;11017;53.552;9.910;2023-01-19T12:53:59;4.50;99.90
21712;DHT22;11017;53.552;9.910;2023-01-19T12:56:29;4.50;99.90
21712;DHT22;11017;53.552;9.910;2023-01-19T12:58:57;4.70;99.90
21712;DHT22;11017;53.552;9.910;2023-01-19T13:01:25;4.60;99.90
21712;DHT22;11017;53.552;9.910;2023-01-19T13:04:01;4.70;99.90
21712;DHT22;11017;53.552;9.910;2023-01-19T13:07:07;4.80;99.90
21712;DHT22;11017;53.552;9.910;2023-01-19T13:09:36;5.00;99.90
21712;DHT22;11017;53.552;9.910;2023-01-19T13:12:22;4.90;99.90
21712;DHT22;11017;53.552;9.910;2023-01-19T13:14:49;5.00;99.90
21712;DHT22;11017;53.552;9.910;2023-01-19T13:17:23;5.00;99.90
21712;DHT22;11017;53.552;9.910;2023-01-19T13:25:50;4.90;99.90
21712;DHT22;11017;53.552;9.910;2023-01-19T13:28:19;5.00;99.90
21712;DHT22;11017;53.552;9.910;2023-01-19T13:30:57;5.00;99.90
21712;DHT22;11017;53.552;9.910;2023-01-19T13:33:33;5.20;99.90
21712;DHT22;11017;53.552;9.910;2023-01-19T13:36:01;5.20;99.90
21712;DHT22;11017;53.552;9.910;2023-01-19T13:38:28;5.30;99.90
21712;DHT22;11017;53.552;9.910;2023-01-19T13:40:59;5.00;99.90
21712;DHT22;11017;53.552;9.910;2023-01-19T13:43:31;5.10;99.90
21712;DHT22;11017;53.552;9.910;2023-01-19T13:45:59;5.20;99.90
21712;DHT22;11017;53.552;9.910;2023-01-19T13:48:28;5.20;99.90
21712;DHT22;11017;53.552;9.910;2023-01-19T13:51:02;5.20;99.90
21712;DHT22;11017;53.552;9.910;2023-01-19T13:53:30;5.40;99.90
21712;DHT22;11017;53.552;9.910;2023-01-19T13:56:15;5.40;99.90
21712;DHT22;11017;53.552;9.910;2023-01-19T13:58:43;5.50;99.90
21712;DHT22;11017;53.552;9.910;2023-01-19T14:01:20;5.50;99.90
21712;DHT22;11017;53.552;9.910;2023-01-19T14:03:48;5.40;99.90
21712;DHT22;11017;53.552;9.910;2023-01-19T14:06:35;5.50;99.90
21712;DHT22;11017;53.552;9.910;2023-01-19T14:09:21;5.50;99.90
21712;DHT22;11017;53.552;9.910;2023-01-19T14:12:06;5.90;99.90
21712;DHT22;11017;53.552;9.910;2023-01-19T14:14:33;5.70;99.90
21712;DHT22;11017;53.552;9.910;2023-01-19T14:17:00;5.70;99.90
21712;DHT22;11017;53.552;9.910;2023-01-19T14:19:28;5.80;99.90
21712;DHT22;11017;53.552;9.910;2023-01-19T14:22:00;5.80;99.90
21712;DHT22;11017;53.552;9.910;2023-01-19T14:24:28;5.80;99.90
21712;DHT22;11017;53.552;9.910;2023-01-19T14:27:18;5.90;99.90
21712;DHT22;11017;53.552;9.910;2023-01-19T14:29:46;5.90;99.90
21712;DHT22;11017;53.552;9.910;2023-01-19T14:32:16;5.80;99.90
21712;DHT22;11017;53.552;9.910;2023-01-19T14:34:47;5.80;99.90
21712;DHT22;11017;53.552;9.910;2023-01-19T14:37:18;5.80;99.90
21712;DHT22;11017;53.552;9.910;2023-01-19T14:39:47;5.70;99.90
21712;DHT22;11017;53.552;9.910;2023-01-19T14:42:24;5.90;99.90
21712;DHT22;11017;53.552;9.910;2023-01-19T14:44:54;6.10;99.90
21712;DHT22;11017;53.552;9.910;2023-01-19T14:47:27;6.10;99.90
21712;DHT22;11017;53.552;9.910;2023-01-19T14:49:58;6.00;99.90
21712;DHT22;11017;53.552;9.910;2023-01-19T14:52:29;5.90;99.90
21712;DHT22;11017;53.552;9.910;2023-01-19T14:54:57;5.80;99.90
21712;DHT22;11017;53.552;9.910;2023-01-19T14:57:24;5.90;99.90
21712;DHT22;11017;53.552;9.910;2023-01-19T14:59:51;5.90;99.90
21712;DHT22;11017;53.552;9.910;2023-01-19T15:02:20;6.00;99.90
21712;DHT22;11017;53.552;9.910;2023-01-19T15:04:47;5.80;99.90
21712;DHT22;11017;53.552;9.910;2023-01-19T15:07:18;5.60;99.90
21712;DHT22;11017;53.552;9.910;2023-01-19T15:09:46;5.60;99.90
21712;DHT22;11017;53.552;9.910;2023-01-19T15:12:15;5.60;99.90
21712;DHT22;11017;53.552;9.910;2023-01-19T15:14:42;5.40;99.90
21712;DHT22;11017;53.552;9.910;2023-01-19T15:17:14;5.20;99.90
21712;DHT22;11017;53.552;9.910;2023-01-19T15:19:42;5.10;99.90
21712;DHT22;11017;53.552;9.910;2023-01-19T15:22:10;5.00;99.90
21712;DHT22;11017;53.552;9.910;2023-01-19T15:24:40;5.00;99.90
21712;DHT22;11017;53.552;9.910;2023-01-19T15:27:09;5.00;99.90
21712;DHT22;11017;53.552;9.910;2023-01-19T15:29:37;4.90;99.90
21712;DHT22;11017;53.552;9.910;2023-01-19T15:32:08;4.80;99.90
21712;DHT22;11017;53.552;9.910;2023-01-19T15:34:36;4.50;99.90
21712;DHT22;11017;53.552;9.910;2023-01-19T15:37:03;4.70;99.90
21712;DHT22;11017;53.552;9.910;2023-01-19T15:39:30;4.60;99.90
21712;DHT22;11017;53.552;9.910;2023-01-19T15:41:59;4.60;99.90
21712;DHT22;11017;53.552;9.910;2023-01-19T15:44:26;4.50;99.90
21712;DHT22;11017;53.552;9.910;2023-01-19T15:46:53;4.50;99.90
21712;DHT22;11017;53.552;9.910;2023-01-19T15:49:21;4.60;99.90
21712;DHT22;11017;53.552;9.910;2023-01-19T15:51:48;4.40;99.90
21712;DHT22;11017;53.552;9.910;2023-01-19T15:54:15;4.40;99.90
21712;DHT22;11017;53.552;9.910;2023-01-19T15:56:43;4.60;99.90
21712;DHT22;11017;53.552;9.910;2023-01-19T15:59:12;4.50;99.90
21712;DHT22;11017;53.552;9.910;2023-01-19T16:01:39;4.50;99.90
21712;DHT22;11017;53.552;9.910;2023-01-19T16:04:07;4.50;99.90
21712;DHT22;11017;53.552;9.910;2023-01-19T16:06:35;4.60;99.90
21712;DHT22;11017;53.552;9.910;2023-01-19T16:09:03;4.50;99.90